Holman, Minnesota
Current Conditions -  °F | °C
As of 9:55 PM on Friday 19 Dec 2014 (Local Time) from KGPZ Reporting Station
Overcast Overcast  
Wind Chill: 15°   Ceiling: 500
Heat Index: 25°   Visibility: 2.5mi
Dew Point: 21°   Wind: 9mph
Humidity: 86%   Direction: 150°SSE
Pressure: 30.08"   Gusts: NA
Location:  47.3121°N, 93.3823°W
Report Text: KGPZ 200355Z AUTO 15008KT 2 1/2SM OVC005 M04/M06 A3008 RMK AO1
Loading
Personal Weather Stations






























Interactive Weather Map New forecast layout! Learn more

10-Day Weather Forecast

Advertisements
Track Severe Weather on mobile